sensor_id;sensor_type;location;lat;lon;timestamp;P1;durP1;ratioP1;P2;durP2;ratioP2
48487;SDS011;34289;48.572;13.378;2022-12-24T00:02:19;2.58;;;1.00;;
48487;SDS011;34289;48.572;13.378;2022-12-24T00:04:45;4.85;;;1.10;;
48487;SDS011;34289;48.572;13.378;2022-12-24T00:07:11;1.50;;;1.00;;
48487;SDS011;34289;48.572;13.378;2022-12-24T00:09:37;1.17;;;0.82;;
48487;SDS011;34289;48.572;13.378;2022-12-24T00:12:02;5.63;;;1.20;;
48487;SDS011;34289;48.572;13.378;2022-12-24T00:14:28;2.60;;;1.20;;
48487;SDS011;34289;48.572;13.378;2022-12-24T00:16:54;1.42;;;0.90;;
48487;SDS011;34289;48.572;13.378;2022-12-24T00:19:20;1.67;;;0.80;;
48487;SDS011;34289;48.572;13.378;2022-12-24T00:21:45;2.65;;;1.20;;
48487;SDS011;34289;48.572;13.378;2022-12-24T00:24:11;3.03;;;1.05;;
48487;SDS011;34289;48.572;13.378;2022-12-24T00:26:37;1.30;;;1.00;;
48487;SDS011;34289;48.572;13.378;2022-12-24T00:29:02;2.15;;;1.10;;
48487;SDS011;34289;48.572;13.378;2022-12-24T00:31:28;2.55;;;1.25;;
48487;SDS011;34289;48.572;13.378;2022-12-24T00:33:54;1.20;;;1.10;;
48487;SDS011;34289;48.572;13.378;2022-12-24T00:36:19;3.35;;;1.20;;
48487;SDS011;34289;48.572;13.378;2022-12-24T00:38:45;3.78;;;1.38;;
48487;SDS011;34289;48.572;13.378;2022-12-24T00:41:11;2.95;;;1.40;;
48487;SDS011;34289;48.572;13.378;2022-12-24T00:43:52;4.07;;;1.40;;
48487;SDS011;34289;48.572;13.378;2022-12-24T00:46:20;5.55;;;1.60;;
48487;SDS011;34289;48.572;13.378;2022-12-24T00:48:46;3.17;;;1.73;;
48487;SDS011;34289;48.572;13.378;2022-12-24T00:51:12;7.68;;;2.10;;
48487;SDS011;34289;48.572;13.378;2022-12-24T00:53:38;3.75;;;1.50;;
48487;SDS011;34289;48.572;13.378;2022-12-24T00:56:04;3.38;;;1.30;;
48487;SDS011;34289;48.572;13.378;2022-12-24T00:58:30;3.15;;;1.25;;
48487;SDS011;34289;48.572;13.378;2022-12-24T01:00:56;3.45;;;1.13;;
48487;SDS011;34289;48.572;13.378;2022-12-24T01:03:21;5.47;;;1.05;;
48487;SDS011;34289;48.572;13.378;2022-12-24T01:05:47;2.97;;;1.10;;
48487;SDS011;34289;48.572;13.378;2022-12-24T01:08:13;2.78;;;1.20;;
48487;SDS011;34289;48.572;13.378;2022-12-24T01:10:38;4.60;;;1.60;;
48487;SDS011;34289;48.572;13.378;2022-12-24T01:13:04;3.28;;;1.20;;
48487;SDS011;34289;48.572;13.378;2022-12-24T01:15:29;3.15;;;1.42;;
48487;SDS011;34289;48.572;13.378;2022-12-24T01:17:55;6.72;;;1.55;;
48487;SDS011;34289;48.572;13.378;2022-12-24T01:20:22;5.07;;;1.30;;
48487;SDS011;34289;48.572;13.378;2022-12-24T01:22:48;4.50;;;1.20;;
48487;SDS011;34289;48.572;13.378;2022-12-24T01:25:13;5.88;;;1.45;;
48487;SDS011;34289;48.572;13.378;2022-12-24T01:27:39;5.38;;;1.30;;
48487;SDS011;34289;48.572;13.378;2022-12-24T01:30:05;3.47;;;1.20;;
48487;SDS011;34289;48.572;13.378;2022-12-24T01:32:32;2.60;;;1.10;;
48487;SDS011;34289;48.572;13.378;2022-12-24T01:34:57;4.15;;;2.63;;
48487;SDS011;34289;48.572;13.378;2022-12-24T01:37:23;2.22;;;1.20;;
48487;SDS011;34289;48.572;13.378;2022-12-24T01:39:49;2.95;;;1.15;;
48487;SDS011;34289;48.572;13.378;2022-12-24T01:42:20;3.10;;;1.70;;
48487;SDS011;34289;48.572;13.378;2022-12-24T01:48:10;0.90;;;0.80;;
48487;SDS011;34289;48.572;13.378;2022-12-24T01:50:44;1.65;;;1.10;;
48487;SDS011;34289;48.572;13.378;2022-12-24T01:53:10;3.85;;;1.13;;
48487;SDS011;34289;48.572;13.378;2022-12-24T01:55:39;2.97;;;1.00;;
48487;SDS011;34289;48.572;13.378;2022-12-24T01:58:06;2.88;;;1.25;;
48487;SDS011;34289;48.572;13.378;2022-12-24T02:00:33;5.85;;;1.30;;
48487;SDS011;34289;48.572;13.378;2022-12-24T02:02:59;3.53;;;1.13;;
48487;SDS011;34289;48.572;13.378;2022-12-24T02:05:29;2.75;;;1.10;;
48487;SDS011;34289;48.572;13.378;2022-12-24T02:08:13;5.68;;;1.40;;
48487;SDS011;34289;48.572;13.378;2022-12-24T02:10:39;5.28;;;1.42;;
48487;SDS011;34289;48.572;13.378;2022-12-24T02:13:05;3.67;;;1.27;;
48487;SDS011;34289;48.572;13.378;2022-12-24T02:15:34;3.20;;;1.20;;
48487;SDS011;34289;48.572;13.378;2022-12-24T02:19:04;2.38;;;1.02;;
48487;SDS011;34289;48.572;13.378;2022-12-24T02:29:32;2.33;;;1.60;;
48487;SDS011;34289;48.572;13.378;2022-12-24T02:32:26;4.30;;;1.20;;
48487;SDS011;34289;48.572;13.378;2022-12-24T02:37:35;2.22;;;1.25;;
48487;SDS011;34289;48.572;13.378;2022-12-24T02:42:43;3.78;;;1.30;;
48487;SDS011;34289;48.572;13.378;2022-12-24T02:45:15;3.67;;;1.58;;
48487;SDS011;34289;48.572;13.378;2022-12-24T02:47:43;1.77;;;1.27;;
48487;SDS011;34289;48.572;13.378;2022-12-24T02:50:13;5.85;;;1.50;;
48487;SDS011;34289;48.572;13.378;2022-12-24T02:52:44;6.15;;;1.40;;
48487;SDS011;34289;48.572;13.378;2022-12-24T02:57:44;5.57;;;1.50;;
48487;SDS011;34289;48.572;13.378;2022-12-24T03:00:20;3.65;;;1.58;;
48487;SDS011;34289;48.572;13.378;2022-12-24T03:05:29;3.88;;;1.50;;
48487;SDS011;34289;48.572;13.378;2022-12-24T03:10:53;3.22;;;1.40;;
48487;SDS011;34289;48.572;13.378;2022-12-24T03:13:39;2.28;;;1.00;;
48487;SDS011;34289;48.572;13.378;2022-12-24T03:16:07;4.40;;;1.40;;
48487;SDS011;34289;48.572;13.378;2022-12-24T03:18:37;6.95;;;2.33;;
48487;SDS011;34289;48.572;13.378;2022-12-24T03:23:44;3.50;;;1.40;;
48487;SDS011;34289;48.572;13.378;2022-12-24T03:26:10;6.47;;;1.60;;
48487;SDS011;34289;48.572;13.378;2022-12-24T03:28:39;3.10;;;1.75;;
48487;SDS011;34289;48.572;13.378;2022-12-24T03:31:06;2.65;;;1.40;;
48487;SDS011;34289;48.572;13.378;2022-12-24T03:33:33;2.30;;;1.35;;
48487;SDS011;34289;48.572;13.378;2022-12-24T03:36:00;3.03;;;1.50;;
48487;SDS011;34289;48.572;13.378;2022-12-24T03:38:26;4.13;;;1.48;;
48487;SDS011;34289;48.572;13.378;2022-12-24T03:40:51;3.03;;;1.30;;
48487;SDS011;34289;48.572;13.378;2022-12-24T03:43:17;4.38;;;1.42;;
48487;SDS011;34289;48.572;13.378;2022-12-24T03:45:42;3.38;;;1.52;;
48487;SDS011;34289;48.572;13.378;2022-12-24T03:48:08;5.30;;;1.40;;
48487;SDS011;34289;48.572;13.378;2022-12-24T03:50:34;2.72;;;1.30;;
48487;SDS011;34289;48.572;13.378;2022-12-24T03:52:59;2.40;;;1.20;;
48487;SDS011;34289;48.572;13.378;2022-12-24T03:55:25;6.10;;;2.13;;
48487;SDS011;34289;48.572;13.378;2022-12-24T03:57:51;8.10;;;2.53;;
48487;SDS011;34289;48.572;13.378;2022-12-24T04:00:16;4.20;;;1.58;;
48487;SDS011;34289;48.572;13.378;2022-12-24T04:02:42;2.65;;;1.33;;
48487;SDS011;34289;48.572;13.378;2022-12-24T04:05:11;5.43;;;1.20;;
48487;SDS011;34289;48.572;13.378;2022-12-24T04:07:39;8.63;;;2.15;;
48487;SDS011;34289;48.572;13.378;2022-12-24T04:10:04;6.30;;;1.75;;
48487;SDS011;34289;48.572;13.378;2022-12-24T04:12:34;2.70;;;1.33;;
48487;SDS011;34289;48.572;13.378;2022-12-24T04:14:59;2.83;;;1.15;;
48487;SDS011;34289;48.572;13.378;2022-12-24T04:17:25;2.85;;;1.42;;
48487;SDS011;34289;48.572;13.378;2022-12-24T04:19:51;4.13;;;1.38;;
48487;SDS011;34289;48.572;13.378;2022-12-24T04:22:17;4.43;;;1.40;;
48487;SDS011;34289;48.572;13.378;2022-12-24T04:24:42;3.42;;;1.30;;
48487;SDS011;34289;48.572;13.378;2022-12-24T04:27:08;2.83;;;1.25;;
48487;SDS011;34289;48.572;13.378;2022-12-24T04:29:33;4.53;;;1.48;;
48487;SDS011;34289;48.572;13.378;2022-12-24T04:31:59;5.05;;;1.35;;
48487;SDS011;34289;48.572;13.378;2022-12-24T04:34:25;5.07;;;1.58;;
48487;SDS011;34289;48.572;13.378;2022-12-24T04:36:51;2.67;;;1.25;;
48487;SDS011;34289;48.572;13.378;2022-12-24T04:39:17;3.20;;;1.35;;
48487;SDS011;34289;48.572;13.378;2022-12-24T04:41:42;4.22;;;1.70;;
48487;SDS011;34289;48.572;13.378;2022-12-24T04:44:08;5.53;;;1.42;;
48487;SDS011;34289;48.572;13.378;2022-12-24T04:46:34;3.20;;;1.40;;
48487;SDS011;34289;48.572;13.378;2022-12-24T04:49:00;3.95;;;1.73;;
48487;SDS011;34289;48.572;13.378;2022-12-24T04:51:26;4.82;;;1.40;;
48487;SDS011;34289;48.572;13.378;2022-12-24T04:53:52;6.43;;;2.25;;
48487;SDS011;34289;48.572;13.378;2022-12-24T04:56:19;5.60;;;1.50;;
48487;SDS011;34289;48.572;13.378;2022-12-24T04:58:47;4.45;;;1.48;;
48487;SDS011;34289;48.572;13.378;2022-12-24T05:01:14;8.18;;;1.70;;
48487;SDS011;34289;48.572;13.378;2022-12-24T05:03:44;4.53;;;1.50;;
48487;SDS011;34289;48.572;13.378;2022-12-24T05:06:11;6.13;;;1.25;;
48487;SDS011;34289;48.572;13.378;2022-12-24T05:08:38;4.25;;;1.50;;
48487;SDS011;34289;48.572;13.378;2022-12-24T05:11:04;9.43;;;1.70;;
48487;SDS011;34289;48.572;13.378;2022-12-24T05:13:30;3.17;;;1.42;;
48487;SDS011;34289;48.572;13.378;2022-12-24T05:15:56;5.25;;;1.85;;
48487;SDS011;34289;48.572;13.378;2022-12-24T05:18:21;5.53;;;1.30;;
48487;SDS011;34289;48.572;13.378;2022-12-24T05:20:47;4.40;;;1.50;;
48487;SDS011;34289;48.572;13.378;2022-12-24T05:23:14;5.88;;;1.27;;
48487;SDS011;34289;48.572;13.378;2022-12-24T05:26:00;4.68;;;1.55;;
48487;SDS011;34289;48.572;13.378;2022-12-24T05:28:44;3.10;;;1.25;;
48487;SDS011;34289;48.572;13.378;2022-12-24T05:31:10;4.32;;;1.17;;
48487;SDS011;34289;48.572;13.378;2022-12-24T05:33:36;3.10;;;1.42;;
48487;SDS011;34289;48.572;13.378;2022-12-24T05:36:01;5.18;;;1.48;;
48487;SDS011;34289;48.572;13.378;2022-12-24T05:38:27;4.15;;;1.48;;
48487;SDS011;34289;48.572;13.378;2022-12-24T05:40:53;9.23;;;1.60;;
48487;SDS011;34289;48.572;13.378;2022-12-24T05:43:18;7.60;;;1.38;;
48487;SDS011;34289;48.572;13.378;2022-12-24T05:45:44;2.65;;;1.30;;
48487;SDS011;34289;48.572;13.378;2022-12-24T05:48:09;2.70;;;1.60;;
48487;SDS011;34289;48.572;13.378;2022-12-24T05:50:39;7.15;;;1.45;;
48487;SDS011;34289;48.572;13.378;2022-12-24T05:53:05;4.55;;;1.52;;
48487;SDS011;34289;48.572;13.378;2022-12-24T05:55:31;2.55;;;1.40;;
48487;SDS011;34289;48.572;13.378;2022-12-24T05:57:57;3.17;;;1.90;;
48487;SDS011;34289;48.572;13.378;2022-12-24T06:00:23;2.95;;;1.30;;
48487;SDS011;34289;48.572;13.378;2022-12-24T06:02:48;7.43;;;1.95;;
48487;SDS011;34289;48.572;13.378;2022-12-24T06:05:14;4.13;;;1.67;;
48487;SDS011;34289;48.572;13.378;2022-12-24T06:07:40;4.97;;;1.52;;
48487;SDS011;34289;48.572;13.378;2022-12-24T06:10:06;4.78;;;1.65;;
48487;SDS011;34289;48.572;13.378;2022-12-24T06:12:32;3.78;;;1.30;;
48487;SDS011;34289;48.572;13.378;2022-12-24T06:14:58;3.58;;;1.65;;
48487;SDS011;34289;48.572;13.378;2022-12-24T06:17:24;2.40;;;1.58;;
48487;SDS011;34289;48.572;13.378;2022-12-24T06:19:50;4.88;;;2.03;;
48487;SDS011;34289;48.572;13.378;2022-12-24T06:22:15;5.32;;;2.20;;
48487;SDS011;34289;48.572;13.378;2022-12-24T06:24:41;6.70;;;2.10;;
48487;SDS011;34289;48.572;13.378;2022-12-24T06:27:06;8.25;;;2.95;;
48487;SDS011;34289;48.572;13.378;2022-12-24T06:29:32;4.75;;;2.90;;
48487;SDS011;34289;48.572;13.378;2022-12-24T06:31:58;5.22;;;2.40;;
48487;SDS011;34289;48.572;13.378;2022-12-24T06:34:23;6.20;;;2.67;;
48487;SDS011;34289;48.572;13.378;2022-12-24T06:36:49;15.52;;;2.63;;
48487;SDS011;34289;48.572;13.378;2022-12-24T06:39:14;3.80;;;2.47;;
48487;SDS011;34289;48.572;13.378;2022-12-24T06:41:40;4.60;;;2.47;;
48487;SDS011;34289;48.572;13.378;2022-12-24T06:44:05;4.60;;;2.90;;
48487;SDS011;34289;48.572;13.378;2022-12-24T06:46:32;3.85;;;2.50;;
48487;SDS011;34289;48.572;13.378;2022-12-24T06:48:58;5.03;;;2.97;;
48487;SDS011;34289;48.572;13.378;2022-12-24T06:51:24;3.10;;;2.42;;
48487;SDS011;34289;48.572;13.378;2022-12-24T06:53:49;6.00;;;2.70;;
48487;SDS011;34289;48.572;13.378;2022-12-24T06:56:15;5.53;;;3.13;;
48487;SDS011;34289;48.572;13.378;2022-12-24T06:58:41;6.25;;;4.00;;
48487;SDS011;34289;48.572;13.378;2022-12-24T07:01:10;4.35;;;3.05;;
48487;SDS011;34289;48.572;13.378;2022-12-24T07:03:37;8.43;;;3.28;;
48487;SDS011;34289;48.572;13.378;2022-12-24T07:06:02;4.78;;;3.10;;
48487;SDS011;34289;48.572;13.378;2022-12-24T07:08:29;5.90;;;2.42;;
48487;SDS011;34289;48.572;13.378;2022-12-24T07:10:57;6.03;;;3.88;;
48487;SDS011;34289;48.572;13.378;2022-12-24T07:13:23;8.30;;;3.85;;
48487;SDS011;34289;48.572;13.378;2022-12-24T07:15:59;9.38;;;5.85;;
48487;SDS011;34289;48.572;13.378;2022-12-24T07:18:26;8.43;;;3.80;;
48487;SDS011;34289;48.572;13.378;2022-12-24T07:20:52;6.35;;;3.80;;
48487;SDS011;34289;48.572;13.378;2022-12-24T07:23:18;8.90;;;4.78;;
48487;SDS011;34289;48.572;13.378;2022-12-24T07:25:43;30.13;;;13.25;;
48487;SDS011;34289;48.572;13.378;2022-12-24T07:28:09;38.70;;;18.63;;
48487;SDS011;34289;48.572;13.378;2022-12-24T07:30:35;22.30;;;8.98;;
48487;SDS011;34289;48.572;13.378;2022-12-24T07:33:00;14.88;;;6.93;;
48487;SDS011;34289;48.572;13.378;2022-12-24T07:35:26;10.82;;;4.85;;
48487;SDS011;34289;48.572;13.378;2022-12-24T07:37:52;10.05;;;5.38;;
48487;SDS011;34289;48.572;13.378;2022-12-24T07:40:17;10.52;;;5.57;;
48487;SDS011;34289;48.572;13.378;2022-12-24T07:42:43;9.45;;;4.30;;
48487;SDS011;34289;48.572;13.378;2022-12-24T07:45:08;7.60;;;4.00;;
48487;SDS011;34289;48.572;13.378;2022-12-24T07:47:34;12.38;;;4.28;;
48487;SDS011;34289;48.572;13.378;2022-12-24T07:50:00;9.95;;;3.38;;
48487;SDS011;34289;48.572;13.378;2022-12-24T07:52:27;5.30;;;2.75;;
48487;SDS011;34289;48.572;13.378;2022-12-24T07:54:52;6.40;;;2.22;;
48487;SDS011;34289;48.572;13.378;2022-12-24T07:57:18;9.27;;;2.45;;
48487;SDS011;34289;48.572;13.378;2022-12-24T07:59:44;13.25;;;2.63;;
48487;SDS011;34289;48.572;13.378;2022-12-24T08:02:10;5.82;;;2.40;;
48487;SDS011;34289;48.572;13.378;2022-12-24T08:04:35;7.25;;;2.63;;
48487;SDS011;34289;48.572;13.378;2022-12-24T08:07:04;8.20;;;4.60;;
48487;SDS011;34289;48.572;13.378;2022-12-24T08:09:31;21.42;;;12.52;;
48487;SDS011;34289;48.572;13.378;2022-12-24T08:11:57;33.78;;;16.52;;
48487;SDS011;34289;48.572;13.378;2022-12-24T08:14:23;25.58;;;14.93;;
48487;SDS011;34289;48.572;13.378;2022-12-24T08:16:49;31.88;;;14.65;;
48487;SDS011;34289;48.572;13.378;2022-12-24T08:19:14;13.93;;;6.72;;
48487;SDS011;34289;48.572;13.378;2022-12-24T08:21:40;17.17;;;7.38;;
48487;SDS011;34289;48.572;13.378;2022-12-24T08:24:06;11.88;;;5.90;;
48487;SDS011;34289;48.572;13.378;2022-12-24T08:26:32;13.05;;;5.55;;
48487;SDS011;34289;48.572;13.378;2022-12-24T08:28:57;9.32;;;4.32;;
48487;SDS011;34289;48.572;13.378;2022-12-24T08:31:23;10.30;;;3.53;;
48487;SDS011;34289;48.572;13.378;2022-12-24T08:33:48;10.95;;;2.83;;
48487;SDS011;34289;48.572;13.378;2022-12-24T08:36:14;15.40;;;4.13;;
48487;SDS011;34289;48.572;13.378;2022-12-24T08:38:40;9.68;;;3.65;;
48487;SDS011;34289;48.572;13.378;2022-12-24T08:41:05;6.72;;;3.03;;
48487;SDS011;34289;48.572;13.378;2022-12-24T08:43:31;4.60;;;3.00;;
48487;SDS011;34289;48.572;13.378;2022-12-24T08:46:00;6.53;;;2.50;;
48487;SDS011;34289;48.572;13.378;2022-12-24T08:48:28;11.05;;;3.28;;
48487;SDS011;34289;48.572;13.378;2022-12-24T08:50:53;6.60;;;3.20;;
48487;SDS011;34289;48.572;13.378;2022-12-24T08:53:19;9.10;;;3.30;;
48487;SDS011;34289;48.572;13.378;2022-12-24T08:55:45;5.25;;;2.30;;
48487;SDS011;34289;48.572;13.378;2022-12-24T08:58:10;17.40;;;4.75;;
48487;SDS011;34289;48.572;13.378;2022-12-24T09:00:36;6.47;;;3.28;;
48487;SDS011;34289;48.572;13.378;2022-12-24T09:03:02;5.07;;;2.88;;
48487;SDS011;34289;48.572;13.378;2022-12-24T09:05:28;10.65;;;4.50;;
48487;SDS011;34289;48.572;13.378;2022-12-24T09:07:53;49.40;;;18.58;;
48487;SDS011;34289;48.572;13.378;2022-12-24T09:10:19;25.13;;;9.27;;
48487;SDS011;34289;48.572;13.378;2022-12-24T09:12:45;26.85;;;9.68;;
48487;SDS011;34289;48.572;13.378;2022-12-24T09:15:12;12.65;;;4.40;;
48487;SDS011;34289;48.572;13.378;2022-12-24T09:17:38;16.17;;;3.60;;
48487;SDS011;34289;48.572;13.378;2022-12-24T09:20:04;9.15;;;2.70;;
48487;SDS011;34289;48.572;13.378;2022-12-24T09:22:30;9.15;;;2.88;;
48487;SDS011;34289;48.572;13.378;2022-12-24T09:24:59;10.73;;;2.58;;
48487;SDS011;34289;48.572;13.378;2022-12-24T09:27:24;8.73;;;2.70;;
48487;SDS011;34289;48.572;13.378;2022-12-24T09:29:50;10.60;;;2.80;;
48487;SDS011;34289;48.572;13.378;2022-12-24T09:32:15;9.20;;;2.17;;
48487;SDS011;34289;48.572;13.378;2022-12-24T09:34:42;14.73;;;3.03;;
48487;SDS011;34289;48.572;13.378;2022-12-24T09:37:08;9.93;;;2.22;;
48487;SDS011;34289;48.572;13.378;2022-12-24T09:39:34;9.60;;;2.28;;
48487;SDS011;34289;48.572;13.378;2022-12-24T09:44:48;9.23;;;4.10;;
48487;SDS011;34289;48.572;13.378;2022-12-24T09:47:28;15.07;;;4.35;;
48487;SDS011;34289;48.572;13.378;2022-12-24T09:50:04;8.52;;;3.05;;
48487;SDS011;34289;48.572;13.378;2022-12-24T09:52:52;5.13;;;2.55;;
48487;SDS011;34289;48.572;13.378;2022-12-24T09:57:50;8.50;;;2.40;;
48487;SDS011;34289;48.572;13.378;2022-12-24T10:00:20;10.07;;;3.08;;
48487;SDS011;34289;48.572;13.378;2022-12-24T10:02:54;7.45;;;2.78;;
48487;SDS011;34289;48.572;13.378;2022-12-24T10:10:41;4.95;;;1.80;;
48487;SDS011;34289;48.572;13.378;2022-12-24T10:13:19;7.93;;;2.15;;
48487;SDS011;34289;48.572;13.378;2022-12-24T10:16:02;7.43;;;1.92;;
48487;SDS011;34289;48.572;13.378;2022-12-24T10:18:37;5.57;;;1.85;;
48487;SDS011;34289;48.572;13.378;2022-12-24T10:21:42;3.70;;;2.10;;
48487;SDS011;34289;48.572;13.378;2022-12-24T10:24:26;10.15;;;2.42;;
48487;SDS011;34289;48.572;13.378;2022-12-24T10:27:13;17.42;;;8.45;;
48487;SDS011;34289;48.572;13.378;2022-12-24T10:29:45;18.97;;;8.33;;
48487;SDS011;34289;48.572;13.378;2022-12-24T10:32:25;8.88;;;3.75;;
48487;SDS011;34289;48.572;13.378;2022-12-24T10:37:24;7.93;;;2.65;;
48487;SDS011;34289;48.572;13.378;2022-12-24T10:39:52;8.90;;;2.35;;
48487;SDS011;34289;48.572;13.378;2022-12-24T10:42:19;10.15;;;5.20;;
48487;SDS011;34289;48.572;13.378;2022-12-24T10:44:49;6.97;;;2.35;;
48487;SDS011;34289;48.572;13.378;2022-12-24T10:47:19;11.10;;;2.75;;
48487;SDS011;34289;48.572;13.378;2022-12-24T10:49:48;7.60;;;2.97;;
48487;SDS011;34289;48.572;13.378;2022-12-24T10:52:21;5.68;;;2.45;;
48487;SDS011;34289;48.572;13.378;2022-12-24T10:57:43;10.02;;;3.55;;
48487;SDS011;34289;48.572;13.378;2022-12-24T11:00:20;8.70;;;3.45;;
48487;SDS011;34289;48.572;13.378;2022-12-24T11:02:48;7.50;;;2.15;;
48487;SDS011;34289;48.572;13.378;2022-12-24T11:05:38;8.38;;;1.95;;
48487;SDS011;34289;48.572;13.378;2022-12-24T11:10:43;6.97;;;2.10;;
48487;SDS011;34289;48.572;13.378;2022-12-24T11:13:34;4.57;;;1.88;;
48487;SDS011;34289;48.572;13.378;2022-12-24T11:18:47;6.03;;;2.15;;
48487;SDS011;34289;48.572;13.378;2022-12-24T11:21:21;3.40;;;1.80;;
48487;SDS011;34289;48.572;13.378;2022-12-24T11:23:53;5.43;;;1.92;;
48487;SDS011;34289;48.572;13.378;2022-12-24T11:26:43;6.03;;;2.28;;
48487;SDS011;34289;48.572;13.378;2022-12-24T11:29:14;7.47;;;2.78;;
48487;SDS011;34289;48.572;13.378;2022-12-24T11:31:47;5.53;;;1.88;;
48487;SDS011;34289;48.572;13.378;2022-12-24T11:36:47;8.93;;;2.25;;
48487;SDS011;34289;48.572;13.378;2022-12-24T11:39:20;6.65;;;2.42;;
48487;SDS011;34289;48.572;13.378;2022-12-24T11:41:48;3.75;;;2.08;;
48487;SDS011;34289;48.572;13.378;2022-12-24T11:44:26;5.70;;;1.77;;
48487;SDS011;34289;48.572;13.378;2022-12-24T11:46:52;11.93;;;2.72;;
48487;SDS011;34289;48.572;13.378;2022-12-24T11:49:29;2.80;;;1.98;;
48487;SDS011;34289;48.572;13.378;2022-12-24T11:54:44;7.10;;;1.92;;
48487;SDS011;34289;48.572;13.378;2022-12-24T11:57:13;1.52;;;1.10;;
48487;SDS011;34289;48.572;13.378;2022-12-24T11:59:46;4.78;;;1.92;;
48487;SDS011;34289;48.572;13.378;2022-12-24T12:04:45;4.53;;;1.90;;
48487;SDS011;34289;48.572;13.378;2022-12-24T12:07:17;3.70;;;1.50;;
48487;SDS011;34289;48.572;13.378;2022-12-24T12:12:27;3.80;;;3.00;;
48487;SDS011;34289;48.572;13.378;2022-12-24T12:17:42;6.75;;;1.63;;
48487;SDS011;34289;48.572;13.378;2022-12-24T12:20:20;3.72;;;1.60;;
48487;SDS011;34289;48.572;13.378;2022-12-24T12:23:10;4.85;;;1.58;;
48487;SDS011;34289;48.572;13.378;2022-12-24T12:26:09;3.67;;;1.60;;
48487;SDS011;34289;48.572;13.378;2022-12-24T12:36:45;4.90;;;1.60;;
48487;SDS011;34289;48.572;13.378;2022-12-24T12:39:15;5.40;;;1.60;;
48487;SDS011;34289;48.572;13.378;2022-12-24T12:41:48;2.17;;;1.45;;
48487;SDS011;34289;48.572;13.378;2022-12-24T12:55:43;4.70;;;1.63;;
48487;SDS011;34289;48.572;13.378;2022-12-24T12:58:32;3.38;;;1.75;;
48487;SDS011;34289;48.572;13.378;2022-12-24T13:15:39;2.88;;;1.80;;
48487;SDS011;34289;48.572;13.378;2022-12-24T13:21:16;3.25;;;1.30;;
48487;SDS011;34289;48.572;13.378;2022-12-24T13:26:11;5.70;;;1.70;;
48487;SDS011;34289;48.572;13.378;2022-12-24T13:28:38;6.45;;;2.22;;
48487;SDS011;34289;48.572;13.378;2022-12-24T13:31:38;3.97;;;1.85;;
48487;SDS011;34289;48.572;13.378;2022-12-24T13:33:57;5.03;;;1.63;;
48487;SDS011;34289;48.572;13.378;2022-12-24T13:36:24;9.45;;;2.85;;
48487;SDS011;34289;48.572;13.378;2022-12-24T13:39:17;10.65;;;2.40;;
48487;SDS011;34289;48.572;13.378;2022-12-24T13:41:50;7.22;;;2.10;;
48487;SDS011;34289;48.572;13.378;2022-12-24T13:44:17;5.07;;;1.77;;
48487;SDS011;34289;48.572;13.378;2022-12-24T13:49:19;7.63;;;3.08;;
48487;SDS011;34289;48.572;13.378;2022-12-24T13:54:47;7.55;;;2.88;;
48487;SDS011;34289;48.572;13.378;2022-12-24T13:57:38;6.22;;;1.80;;
48487;SDS011;34289;48.572;13.378;2022-12-24T14:02:56;10.02;;;2.28;;
48487;SDS011;34289;48.572;13.378;2022-12-24T14:08:51;6.30;;;1.88;;
48487;SDS011;34289;48.572;13.378;2022-12-24T14:11:23;4.85;;;1.95;;
48487;SDS011;34289;48.572;13.378;2022-12-24T14:14:09;6.07;;;1.90;;
48487;SDS011;34289;48.572;13.378;2022-12-24T14:16:43;4.55;;;1.92;;
48487;SDS011;34289;48.572;13.378;2022-12-24T14:19:13;4.32;;;1.80;;
48487;SDS011;34289;48.572;13.378;2022-12-24T14:24:42;7.45;;;2.35;;
48487;SDS011;34289;48.572;13.378;2022-12-24T14:27:17;4.37;;;1.97;;
48487;SDS011;34289;48.572;13.378;2022-12-24T14:30:06;7.85;;;2.80;;
48487;SDS011;34289;48.572;13.378;2022-12-24T14:32:52;6.82;;;2.85;;
48487;SDS011;34289;48.572;13.378;2022-12-24T14:35:19;7.30;;;3.28;;
48487;SDS011;34289;48.572;13.378;2022-12-24T14:37:49;8.52;;;2.85;;
48487;SDS011;34289;48.572;13.378;2022-12-24T14:40:29;10.15;;;2.70;;
48487;SDS011;34289;48.572;13.378;2022-12-24T14:43:19;7.10;;;2.47;;
48487;SDS011;34289;48.572;13.378;2022-12-24T14:48:55;6.10;;;2.22;;
48487;SDS011;34289;48.572;13.378;2022-12-24T14:51:43;12.38;;;2.35;;
48487;SDS011;34289;48.572;13.378;2022-12-24T14:59:43;5.03;;;2.30;;
48487;SDS011;34289;48.572;13.378;2022-12-24T15:05:13;13.25;;;2.13;;
48487;SDS011;34289;48.572;13.378;2022-12-24T15:07:48;6.97;;;2.13;;
48487;SDS011;34289;48.572;13.378;2022-12-24T15:10:32;9.65;;;2.53;;
48487;SDS011;34289;48.572;13.378;2022-12-24T15:13:07;11.15;;;2.72;;
48487;SDS011;34289;48.572;13.378;2022-12-24T15:15:48;12.45;;;2.45;;
48487;SDS011;34289;48.572;13.378;2022-12-24T15:18:16;6.18;;;2.50;;
48487;SDS011;34289;48.572;13.378;2022-12-24T15:20:47;5.82;;;2.47;;
48487;SDS011;34289;48.572;13.378;2022-12-24T15:23:25;5.70;;;2.65;;
48487;SDS011;34289;48.572;13.378;2022-12-24T15:28:38;6.18;;;2.28;;
48487;SDS011;34289;48.572;13.378;2022-12-24T15:31:07;7.97;;;1.90;;
48487;SDS011;34289;48.572;13.378;2022-12-24T15:33:39;6.95;;;1.88;;
48487;SDS011;34289;48.572;13.378;2022-12-24T15:36:09;5.40;;;2.35;;
48487;SDS011;34289;48.572;13.378;2022-12-24T15:38:37;10.68;;;2.38;;
48487;SDS011;34289;48.572;13.378;2022-12-24T15:41:28;10.02;;;2.83;;
48487;SDS011;34289;48.572;13.378;2022-12-24T15:43:54;4.82;;;2.10;;
48487;SDS011;34289;48.572;13.378;2022-12-24T15:46:25;6.57;;;2.28;;
48487;SDS011;34289;48.572;13.378;2022-12-24T15:48:54;11.30;;;3.13;;
48487;SDS011;34289;48.572;13.378;2022-12-24T15:53:58;7.88;;;2.20;;
48487;SDS011;34289;48.572;13.378;2022-12-24T15:56:34;4.32;;;2.25;;
48487;SDS011;34289;48.572;13.378;2022-12-24T16:01:36;6.55;;;2.40;;
48487;SDS011;34289;48.572;13.378;2022-12-24T16:04:11;8.13;;;2.40;;
48487;SDS011;34289;48.572;13.378;2022-12-24T16:06:55;8.07;;;2.70;;
48487;SDS011;34289;48.572;13.378;2022-12-24T16:09:41;9.27;;;2.50;;
48487;SDS011;34289;48.572;13.378;2022-12-24T16:12:13;5.85;;;2.30;;
48487;SDS011;34289;48.572;13.378;2022-12-24T16:14:54;6.30;;;1.83;;
48487;SDS011;34289;48.572;13.378;2022-12-24T16:17:24;9.45;;;2.85;;
48487;SDS011;34289;48.572;13.378;2022-12-24T16:19:52;5.30;;;2.22;;
48487;SDS011;34289;48.572;13.378;2022-12-24T16:22:20;5.45;;;1.83;;
48487;SDS011;34289;48.572;13.378;2022-12-24T16:24:56;8.32;;;2.30;;
48487;SDS011;34289;48.572;13.378;2022-12-24T16:27:23;8.13;;;2.40;;
48487;SDS011;34289;48.572;13.378;2022-12-24T16:29:49;9.50;;;2.78;;
48487;SDS011;34289;48.572;13.378;2022-12-24T16:35:03;6.63;;;2.28;;
48487;SDS011;34289;48.572;13.378;2022-12-24T16:37:30;6.68;;;2.33;;
48487;SDS011;34289;48.572;13.378;2022-12-24T16:39:56;4.65;;;2.50;;
48487;SDS011;34289;48.572;13.378;2022-12-24T16:42:23;8.85;;;2.38;;
48487;SDS011;34289;48.572;13.378;2022-12-24T16:45:07;7.78;;;3.33;;
48487;SDS011;34289;48.572;13.378;2022-12-24T16:47:34;8.27;;;2.20;;
48487;SDS011;34289;48.572;13.378;2022-12-24T16:50:02;5.30;;;2.35;;
48487;SDS011;34289;48.572;13.378;2022-12-24T16:52:31;5.05;;;2.40;;
48487;SDS011;34289;48.572;13.378;2022-12-24T16:54:59;7.68;;;2.78;;
48487;SDS011;34289;48.572;13.378;2022-12-24T16:57:25;6.70;;;2.67;;
48487;SDS011;34289;48.572;13.378;2022-12-24T16:59:51;4.38;;;2.53;;
48487;SDS011;34289;48.572;13.378;2022-12-24T17:02:21;8.27;;;2.45;;
48487;SDS011;34289;48.572;13.378;2022-12-24T17:04:47;5.22;;;2.20;;
48487;SDS011;34289;48.572;13.378;2022-12-24T17:07:14;8.77;;;2.03;;